createdAt,value
2019-04-07T00:01:53.262Z,118.80
2019-04-07T00:04:21.687Z,107.78
2019-04-07T00:06:50.123Z,108.87
2019-04-07T00:09:18.915Z,116.30
2019-04-07T00:11:47.499Z,116.47
2019-04-07T00:14:16.555Z,110.72
2019-04-07T00:16:45.148Z,101.33
2019-04-07T00:19:13.701Z,115.88
2019-04-07T00:21:42.342Z,114.62
2019-04-07T00:24:10.716Z,116.40
2019-04-07T00:26:39.432Z,114.15
2019-04-07T00:29:08.678Z,122.62
2019-04-07T00:31:37.375Z,117.10
2019-04-07T00:34:05.812Z,117.17
2019-04-07T00:36:34.256Z,112.12
2019-04-07T00:39:04.188Z,115.22
2019-04-07T00:41:32.677Z,115.97
2019-04-07T00:44:01.576Z,121.02
2019-04-07T00:46:30.027Z,124.10
2019-04-07T00:48:58.459Z,115.22
2019-04-07T00:51:27.000Z,132.85
2019-04-07T00:53:56.095Z,114.20
2019-04-07T00:56:24.868Z,110.37
2019-04-07T00:58:53.359Z,121.10
2019-04-07T01:01:21.757Z,114.65
2019-04-07T01:03:50.427Z,130.03
2019-04-07T01:06:18.865Z,114.55
2019-04-07T01:08:47.838Z,125.10
2019-04-07T01:11:16.761Z,120.20
2019-04-07T01:13:45.402Z,123.47
2019-04-07T01:16:13.973Z,123.67
2019-04-07T01:18:43.749Z,119.80
2019-04-07T01:21:12.808Z,132.97
2019-04-07T01:23:41.564Z,125.15
2019-04-07T01:26:10.543Z,126.10
2019-04-07T01:28:39.604Z,125.60
2019-04-07T01:31:08.732Z,126.13
2019-04-07T01:33:37.740Z,123.78
2019-04-07T01:36:06.191Z,125.90
2019-04-07T01:38:34.612Z,132.65
2019-04-07T01:41:20.760Z,115.13
2019-04-07T01:44:08.985Z,123.95
2019-04-07T01:46:39.017Z,125.78
2019-04-07T01:49:11.747Z,123.87
2019-04-07T01:51:58.049Z,123.05
2019-04-07T01:54:30.946Z,124.72
2019-04-07T01:57:01.372Z,123.00
2019-04-07T01:59:34.351Z,129.57
2019-04-07T02:02:16.736Z,127.82
2019-04-07T02:04:56.309Z,137.90
2019-04-07T02:07:29.460Z,127.42
2019-04-07T02:10:05.444Z,130.07
2019-04-07T02:12:47.814Z,132.85
2019-04-07T02:15:29.813Z,123.53
2019-04-07T02:18:00.142Z,130.95
2019-04-07T02:21:04.341Z,128.00
2019-04-07T02:23:50.669Z,125.53
2019-04-07T02:26:23.587Z,132.10
2019-04-07T02:28:59.210Z,124.40
2019-04-07T02:31:35.943Z,136.22
2019-04-07T02:34:15.551Z,139.80
2019-04-07T02:37:04.701Z,133.30
2019-04-07T02:39:40.813Z,137.47
2019-04-07T02:42:15.125Z,130.93
2019-04-07T02:44:48.273Z,134.60
2019-04-07T02:47:21.347Z,130.05
2019-04-07T02:49:52.755Z,136.70
2019-04-07T02:52:34.591Z,126.80
2019-04-07T02:55:08.421Z,132.15
2019-04-07T02:57:38.582Z,135.72
2019-04-07T03:00:12.134Z,133.57
2019-04-07T03:02:42.339Z,137.77
2019-04-07T03:05:12.493Z,130.90
2019-04-07T03:07:48.732Z,119.17
2019-04-07T03:10:18.951Z,140.35
2019-04-07T03:15:38.982Z,135.65
2019-04-07T03:18:14.825Z,124.00
2019-04-07T03:20:47.608Z,134.47
2019-04-07T03:23:33.003Z,134.72
2019-04-07T03:26:05.601Z,144.93
2019-04-07T03:28:52.577Z,141.12
2019-04-07T03:31:32.772Z,145.72
2019-04-07T03:34:09.714Z,136.57
2019-04-07T03:37:13.840Z,141.32
2019-04-07T03:39:15.560Z,135.00
2019-04-07T03:41:49.209Z,146.53
2019-04-07T03:44:34.459Z,139.62
2019-04-07T03:47:10.376Z,126.70
2019-04-07T03:49:55.485Z,136.57
2019-04-07T03:52:34.528Z,123.22
2019-04-07T03:55:06.632Z,138.32
2019-04-07T03:57:46.341Z,130.78
2019-04-07T04:00:36.225Z,150.10
2019-04-07T04:03:06.646Z,146.57
2019-04-07T04:08:11.719Z,128.65
2019-04-07T04:11:00.110Z,128.68
2019-04-07T04:13:42.351Z,128.30
2019-04-07T04:16:11.398Z,127.93
2019-04-07T04:18:40.606Z,145.70
2019-04-07T04:21:09.242Z,146.60
2019-04-07T04:23:40.154Z,150.00
2019-04-07T04:26:08.309Z,136.20
2019-04-07T04:28:37.071Z,146.37
2019-04-07T04:31:05.504Z,143.80
2019-04-07T04:33:34.806Z,151.78
2019-04-07T04:36:03.454Z,157.50
2019-04-07T04:38:31.997Z,145.65
2019-04-07T04:41:01.289Z,153.72
2019-04-07T04:43:29.925Z,151.15
2019-04-07T04:45:58.374Z,148.65
2019-04-07T04:48:27.660Z,149.97
2019-04-07T04:50:57.968Z,155.66
2019-04-07T04:53:26.888Z,146.75
2019-04-07T04:55:55.677Z,148.00
2019-04-07T04:58:24.770Z,142.30
2019-04-07T05:00:53.574Z,153.80
2019-04-07T05:03:22.023Z,146.65
2019-04-07T05:05:51.217Z,150.40
2019-04-07T05:08:20.479Z,133.82
2019-04-07T05:10:49.099Z,154.82
2019-04-07T05:13:18.020Z,140.43
2019-04-07T05:15:46.906Z,147.62
2019-04-07T05:18:15.350Z,153.68
2019-04-07T05:20:44.378Z,148.93
2019-04-07T05:23:13.091Z,136.47
2019-04-07T05:25:41.520Z,143.30
2019-04-07T05:28:10.092Z,143.28
2019-04-07T05:30:39.159Z,138.40
2019-04-07T05:33:07.927Z,157.03
2019-04-07T05:35:36.375Z,149.07
2019-04-07T05:38:06.620Z,158.32
2019-04-07T05:40:35.647Z,155.52
2019-04-07T05:43:04.750Z,150.40
2019-04-07T05:45:33.783Z,174.10
2019-04-07T05:50:31.843Z,153.18
2019-04-07T05:53:00.365Z,154.45
2019-04-07T05:55:29.279Z,162.60
2019-04-07T05:57:57.715Z,168.00
2019-04-07T06:00:26.238Z,155.07
2019-04-07T06:02:54.663Z,141.77
2019-04-07T06:05:23.106Z,159.85
2019-04-07T06:07:51.561Z,153.50
2019-04-07T06:10:22.859Z,152.47
2019-04-07T06:12:50.265Z,151.40
2019-04-07T06:15:22.042Z,157.82
2019-04-07T06:17:49.096Z,155.12
2019-04-07T06:20:18.053Z,148.70
2019-04-07T06:22:49.798Z,143.28
2019-04-07T06:25:17.499Z,144.55
2019-04-07T06:27:46.667Z,141.37
2019-04-07T06:30:16.561Z,141.25
2019-04-07T06:32:45.193Z,135.60
2019-04-07T06:35:14.191Z,133.25
2019-04-07T06:37:42.932Z,118.55
2019-04-07T06:40:12.337Z,130.15
2019-04-07T06:42:40.953Z,127.65
2019-04-07T06:45:11.905Z,124.02
2019-04-07T06:48:01.163Z,109.40
2019-04-07T06:50:50.221Z,116.47
2019-04-07T06:53:20.665Z,112.65
2019-04-07T06:56:05.947Z,116.33
2019-04-07T06:58:51.569Z,104.23
2019-04-07T07:01:27.577Z,103.47
2019-04-07T07:04:00.606Z,97.55
2019-04-07T07:06:37.310Z,94.45
2019-04-07T07:09:14.091Z,95.28
2019-04-07T07:11:52.908Z,95.00
2019-04-07T07:14:44.531Z,93.82
2019-04-07T07:17:14.962Z,95.17
2019-04-07T07:19:44.635Z,92.88
2019-04-07T07:22:18.562Z,98.97
2019-04-07T07:24:47.593Z,96.50
2019-04-07T07:27:16.426Z,85.13
2019-04-07T07:29:45.976Z,86.78
2019-04-07T07:32:15.858Z,90.77
2019-04-07T07:34:44.655Z,83.63
2019-04-07T07:37:13.375Z,87.78
2019-04-07T07:39:44.777Z,81.12
2019-04-07T07:42:12.250Z,80.60
2019-04-07T07:44:40.826Z,81.30
2019-04-07T07:47:10.186Z,79.50
2019-04-07T07:49:40.938Z,87.43
2019-04-07T07:52:09.110Z,79.37
2019-04-07T07:54:37.569Z,76.90
2019-04-07T07:57:06.008Z,64.70
2019-04-07T07:59:37.980Z,68.90
2019-04-07T08:04:33.480Z,69.25
2019-04-07T08:07:02.683Z,71.10
2019-04-07T08:09:31.773Z,59.75
2019-04-07T08:12:01.618Z,60.70
2019-04-07T08:14:30.401Z,71.62
2019-04-07T08:17:01.635Z,61.45
2019-04-07T08:19:30.399Z,60.20
2019-04-07T08:21:59.651Z,53.95
2019-04-07T08:24:28.354Z,54.65
2019-04-07T08:26:58.353Z,50.55
2019-04-07T08:29:27.057Z,52.43
2019-04-07T08:31:56.566Z,51.77
2019-04-07T08:34:25.518Z,51.42
2019-04-07T08:36:54.134Z,47.80
2019-04-07T08:39:25.576Z,50.20
2019-04-07T08:41:52.938Z,49.45
2019-04-07T08:44:21.570Z,46.37
2019-04-07T08:46:50.799Z,49.17
2019-04-07T08:49:23.371Z,49.67
2019-04-07T08:51:49.521Z,39.42
2019-04-07T08:54:18.518Z,43.63
2019-04-07T08:56:46.953Z,43.20
2019-04-07T08:59:17.063Z,45.35
2019-04-07T09:01:45.552Z,44.90
2019-04-07T09:04:16.554Z,44.53
2019-04-07T09:06:44.892Z,38.00
2019-04-07T09:09:14.056Z,43.13
2019-04-07T09:11:42.682Z,46.08
2019-04-07T09:14:11.143Z,43.48
2019-04-07T09:16:41.987Z,39.92
2019-04-07T09:19:14.982Z,35.23
2019-04-07T09:21:57.072Z,43.48
2019-04-07T09:24:32.249Z,33.50
2019-04-07T09:27:19.500Z,40.97
2019-04-07T09:30:06.075Z,29.77
2019-04-07T09:32:51.528Z,34.67
2019-04-07T09:35:27.461Z,33.63
2019-04-07T09:38:08.001Z,30.23
2019-04-07T09:40:54.443Z,37.08
2019-04-07T09:43:36.681Z,32.95
2019-04-07T09:46:12.559Z,30.17
2019-04-07T09:48:50.934Z,30.88
2019-04-07T09:51:20.723Z,28.40
2019-04-07T09:53:56.651Z,32.60
2019-04-07T09:56:44.050Z,30.97
2019-04-07T09:59:20.376Z,28.62
2019-04-07T10:01:59.319Z,25.68
2019-04-07T10:04:31.144Z,25.37
2019-04-07T10:07:17.415Z,25.77
2019-04-07T10:10:10.836Z,23.32
2019-04-07T10:12:41.447Z,23.00
2019-04-07T10:15:27.869Z,26.42
2019-04-07T10:18:16.805Z,20.63
2019-04-07T10:20:46.889Z,23.80
2019-04-07T10:23:19.798Z,19.07
2019-04-07T10:26:06.315Z,23.00
2019-04-07T10:28:39.946Z,17.32
2019-04-07T10:31:13.933Z,22.93
2019-04-07T10:33:44.153Z,17.73
2019-04-07T10:36:14.797Z,19.73
2019-04-07T10:38:48.157Z,20.70
2019-04-07T10:41:33.529Z,21.40
2019-04-07T10:44:09.644Z,21.68
2019-04-07T10:46:56.078Z,17.07
2019-04-07T10:49:26.337Z,20.37
2019-04-07T10:52:13.077Z,23.52
2019-04-07T10:54:49.263Z,18.60
2019-04-07T10:57:34.476Z,17.37
2019-04-07T11:00:07.565Z,18.42
2019-04-07T11:02:56.868Z,23.20
2019-04-07T11:05:44.773Z,20.57
2019-04-07T11:08:15.064Z,19.10
2019-04-07T11:11:02.293Z,20.15
2019-04-07T11:13:51.641Z,17.95
2019-04-07T11:16:27.399Z,18.10
2019-04-07T11:19:00.615Z,24.43
2019-04-07T11:21:30.690Z,17.00
2019-04-07T11:24:17.622Z,15.00
2019-04-07T11:26:48.586Z,16.12
2019-04-07T11:29:19.379Z,17.57
2019-04-07T11:32:05.549Z,18.42
2019-04-07T11:34:54.885Z,19.50
2019-04-07T11:37:25.034Z,19.47
2019-04-07T11:39:55.115Z,18.05
2019-04-07T11:42:40.433Z,23.50
2019-04-07T11:45:11.339Z,17.77
2019-04-07T11:47:41.685Z,23.05
2019-04-07T11:50:12.481Z,23.00
2019-04-07T11:52:46.207Z,17.90
2019-04-07T11:55:17.311Z,18.32
2019-04-07T11:58:00.665Z,17.52
2019-04-07T12:00:22.505Z,18.77
2019-04-07T12:02:53.631Z,18.50
2019-04-07T12:05:40.811Z,15.98
2019-04-07T12:08:13.979Z,14.58
2019-04-07T12:11:03.798Z,20.48
2019-04-07T12:13:32.987Z,16.57
2019-04-07T12:16:20.134Z,18.67
2019-04-07T12:18:53.671Z,14.98
2019-04-07T12:21:38.095Z,15.50
2019-04-07T12:24:09.550Z,17.40
2019-04-07T12:26:52.289Z,18.55
2019-04-07T12:29:30.858Z,20.68
2019-04-07T12:32:13.016Z,15.03
2019-04-07T12:34:58.959Z,17.60
2019-04-07T12:37:46.603Z,16.95
2019-04-07T12:40:30.673Z,23.45
2019-04-07T12:43:00.806Z,14.87
2019-04-07T12:45:39.600Z,16.42
2019-04-07T12:48:19.503Z,18.67
2019-04-07T12:51:06.246Z,18.02
2019-04-07T12:53:36.639Z,24.37
2019-04-07T12:56:25.260Z,27.70
2019-04-07T12:59:14.308Z,13.87
2019-04-07T13:01:48.488Z,19.85
2019-04-07T13:04:21.475Z,16.25
2019-04-07T13:06:54.516Z,17.98
2019-04-07T13:09:40.652Z,17.90
2019-04-07T13:12:13.978Z,18.02
2019-04-07T13:14:47.576Z,17.75
2019-04-07T13:17:23.618Z,17.95
2019-04-07T13:19:54.411Z,17.67
2019-04-07T13:22:26.163Z,18.48
2019-04-07T13:24:58.146Z,19.73
2019-04-07T13:27:28.085Z,20.37
2019-04-07T13:32:41.594Z,16.15
2019-04-07T13:35:04.763Z,22.40
2019-04-07T13:37:43.721Z,15.90
2019-04-07T13:40:14.319Z,20.52
2019-04-07T13:42:50.918Z,18.17
2019-04-07T13:45:36.245Z,15.70
2019-04-07T13:48:15.827Z,20.27
2019-04-07T13:50:47.714Z,18.48
2019-04-07T13:53:33.760Z,17.02
2019-04-07T13:56:19.762Z,17.80
2019-04-07T13:58:50.131Z,20.52
2019-04-07T14:01:34.189Z,17.80
2019-04-07T14:04:03.061Z,15.78
2019-04-07T14:15:01.400Z,16.37
2019-04-07T14:17:35.097Z,16.47
2019-04-07T14:20:14.937Z,16.93
2019-04-07T14:22:45.463Z,25.32
2019-04-07T14:25:27.817Z,15.35
2019-04-07T14:28:01.337Z,19.15
2019-04-07T14:30:40.819Z,16.23
2019-04-07T14:33:21.455Z,18.35
2019-04-07T14:35:51.805Z,18.00
2019-04-07T14:38:22.309Z,20.43
2019-04-07T14:41:09.666Z,17.90
2019-04-07T14:43:55.527Z,15.70
2019-04-07T14:46:42.618Z,20.60
2019-04-07T14:49:27.416Z,16.52
2019-04-07T14:52:03.623Z,19.98
2019-04-07T14:54:56.463Z,16.20
2019-04-07T14:57:22.526Z,19.32
2019-04-07T14:59:54.434Z,19.48
2019-04-07T15:02:22.837Z,17.83
2019-04-07T15:04:53.155Z,21.15
2019-04-07T15:07:35.121Z,14.60
2019-04-07T15:10:15.561Z,19.73
2019-04-07T15:12:44.290Z,17.32
2019-04-07T15:15:12.853Z,17.92
2019-04-07T15:17:41.294Z,19.55
2019-04-07T15:20:13.736Z,37.25
2019-04-07T15:22:41.072Z,16.25
2019-04-07T15:25:10.711Z,19.07
2019-04-07T15:27:40.051Z,20.17
2019-04-07T15:30:13.275Z,18.27
2019-04-07T15:32:40.536Z,20.70
2019-04-07T15:35:11.947Z,22.75
2019-04-07T15:37:40.626Z,16.48
2019-04-07T15:42:43.400Z,17.32
2019-04-07T15:45:10.605Z,19.67
2019-04-07T15:47:39.214Z,19.35
2019-04-07T15:50:09.552Z,15.68
2019-04-07T15:52:42.139Z,18.35
2019-04-07T15:57:37.273Z,18.50
2019-04-07T16:00:07.892Z,17.12
2019-04-07T16:02:40.884Z,21.55
2019-04-07T16:07:35.231Z,16.97
2019-04-07T16:10:05.874Z,17.05
2019-04-07T16:12:43.462Z,19.05
2019-04-07T16:17:34.714Z,22.00
2019-04-07T16:20:04.342Z,23.20
2019-04-07T16:25:00.694Z,28.23
2019-04-07T16:27:29.355Z,24.37
2019-04-07T16:29:58.025Z,28.23
2019-04-07T16:32:28.885Z,25.27
2019-04-07T16:34:57.275Z,27.62
2019-04-07T16:37:29.092Z,28.32
2019-04-07T16:42:23.725Z,27.20
2019-04-07T16:44:52.639Z,27.13
2019-04-07T16:47:24.911Z,30.07
2019-04-07T16:49:52.401Z,28.05
2019-04-07T16:52:21.069Z,25.67
2019-04-07T16:54:49.536Z,26.05
2019-04-07T16:57:18.839Z,24.13
2019-04-07T16:59:47.898Z,32.65
2019-04-07T17:02:17.885Z,24.33
2019-04-07T17:04:46.488Z,23.27
2019-04-07T17:07:16.786Z,27.42
2019-04-07T17:09:45.123Z,28.70
2019-04-07T17:12:13.846Z,23.05
2019-04-07T17:14:42.442Z,32.98
2019-04-07T17:17:11.164Z,29.77
2019-04-07T17:19:40.456Z,26.52
2019-04-07T17:22:11.861Z,33.13
2019-04-07T17:24:39.917Z,28.73
2019-04-07T17:27:11.372Z,27.58
2019-04-07T17:29:39.527Z,27.32
2019-04-07T17:32:08.855Z,32.07
2019-04-07T17:34:41.377Z,27.13
2019-04-07T17:37:07.467Z,32.25
2019-04-07T17:39:40.072Z,31.45
2019-04-07T17:42:11.590Z,24.92
2019-04-07T17:44:50.528Z,36.83
2019-04-07T17:47:27.898Z,27.93
2019-04-07T17:49:59.168Z,31.40
2019-04-07T17:52:40.846Z,28.90
2019-04-07T17:55:27.990Z,31.97
2019-04-07T17:58:16.063Z,29.37
2019-04-07T18:00:58.578Z,24.10
2019-04-07T18:03:46.239Z,28.77
2019-04-07T18:06:33.470Z,33.50
2019-04-07T18:09:22.111Z,28.85
2019-04-07T18:11:53.414Z,28.05
2019-04-07T18:14:28.322Z,23.25
2019-04-07T18:17:16.222Z,36.13
2019-04-07T18:19:48.886Z,28.15
2019-04-07T18:22:25.079Z,29.27
2019-04-07T18:24:55.155Z,28.12
2019-04-07T18:27:25.407Z,29.05
2019-04-07T18:29:59.674Z,25.37
2019-04-07T18:32:30.774Z,33.50
2019-04-07T18:35:01.213Z,34.10
2019-04-07T18:37:36.479Z,36.33
2019-04-07T18:40:09.513Z,33.60
2019-04-07T18:42:45.654Z,39.35
2019-04-07T18:45:18.981Z,34.18
2019-04-07T18:47:53.881Z,36.68
2019-04-07T18:50:29.289Z,33.95
2019-04-07T18:53:08.120Z,38.67
2019-04-07T18:55:54.458Z,31.95
2019-04-07T18:58:31.180Z,36.05
2019-04-07T19:01:07.352Z,28.98
2019-04-07T19:03:53.254Z,28.10
2019-04-07T19:06:36.895Z,36.53
2019-04-07T19:09:10.122Z,29.95
2019-04-07T19:11:46.319Z,31.02
2019-04-07T19:14:39.255Z,34.33
2019-04-07T19:16:56.524Z,35.85
2019-04-07T19:19:38.462Z,36.50
2019-04-07T19:22:24.792Z,33.42
2019-04-07T19:24:55.758Z,30.05
2019-04-07T19:27:30.104Z,33.38
2019-04-07T19:30:15.303Z,29.48
2019-04-07T19:32:48.510Z,25.48
2019-04-07T19:35:20.595Z,29.48
2019-04-07T19:38:00.142Z,26.57
2019-04-07T19:40:30.373Z,25.45
2019-04-07T19:43:12.238Z,28.30
2019-04-07T19:45:41.390Z,28.17
2019-04-07T19:48:11.709Z,26.80
2019-04-07T19:50:58.591Z,28.32
2019-04-07T19:53:34.686Z,32.95
2019-04-07T19:56:20.980Z,23.63
2019-04-07T19:58:54.061Z,24.20
2019-04-07T20:01:29.026Z,30.40
2019-04-07T20:03:59.754Z,25.15
2019-04-07T20:06:45.838Z,24.18
2019-04-07T20:09:34.242Z,27.48
2019-04-07T20:12:07.021Z,27.98
2019-04-07T20:15:00.571Z,25.75
2019-04-07T20:17:37.002Z,25.32
2019-04-07T20:20:17.413Z,24.15
2019-04-07T20:22:47.571Z,26.33
2019-04-07T20:25:29.325Z,24.37
2019-04-07T20:27:59.565Z,26.02
2019-04-07T20:30:48.566Z,31.25
2019-04-07T20:33:20.914Z,26.50
2019-04-07T20:36:02.716Z,28.50
2019-04-07T20:38:33.688Z,26.00
2019-04-07T20:41:16.785Z,28.30
2019-04-07T20:43:47.237Z,22.55
2019-04-07T20:46:34.485Z,29.30
2019-04-07T20:49:10.637Z,29.02
2019-04-07T20:51:48.039Z,30.83
2019-04-07T20:54:15.326Z,31.37
2019-04-07T20:56:48.416Z,29.10
2019-04-07T20:59:26.846Z,29.82
2019-04-07T21:02:03.378Z,26.97
2019-04-07T21:04:37.500Z,30.55
2019-04-07T21:07:07.954Z,30.07
2019-04-07T21:09:48.042Z,31.15
2019-04-07T21:12:18.130Z,35.85
2019-04-07T21:14:48.197Z,26.80
2019-04-07T21:17:34.643Z,28.73
2019-04-07T21:20:14.555Z,29.00
2019-04-07T21:22:50.335Z,33.33
2019-04-07T21:25:23.754Z,33.85
2019-04-07T21:27:54.840Z,33.20
2019-04-07T21:30:37.337Z,33.38
2019-04-07T21:33:22.376Z,30.77
2019-04-07T21:36:10.288Z,32.70
2019-04-07T21:38:45.725Z,32.33
2019-04-07T21:41:27.498Z,36.60
2019-04-07T21:44:09.565Z,35.85
2019-04-07T21:46:42.924Z,36.47
2019-04-07T21:49:25.726Z,36.05
2019-04-07T21:52:05.124Z,36.88
2019-04-07T21:54:39.150Z,36.98
2019-04-07T21:57:25.554Z,33.48
2019-04-07T21:59:56.299Z,35.08
2019-04-07T22:02:29.265Z,33.67
2019-04-07T22:04:59.406Z,32.10
2019-04-07T22:07:33.550Z,37.42
2019-04-07T22:10:07.455Z,34.43
2019-04-07T22:12:35.986Z,33.70
2019-04-07T22:15:11.724Z,30.25
2019-04-07T22:17:39.252Z,33.88
2019-04-07T22:20:09.135Z,38.42
2019-04-07T22:22:37.568Z,33.27
2019-04-07T22:25:09.419Z,39.50
2019-04-07T22:27:37.522Z,37.28
2019-04-07T22:30:12.085Z,35.23
2019-04-07T22:32:40.771Z,35.60
2019-04-07T22:35:10.666Z,36.00
2019-04-07T22:37:39.912Z,34.45
2019-04-07T22:40:14.521Z,33.55
2019-04-07T22:42:45.426Z,39.33
2019-04-07T22:45:13.690Z,40.30
2019-04-07T22:47:42.058Z,33.27
2019-04-07T22:50:12.879Z,39.98
2019-04-07T22:52:41.842Z,35.33
2019-04-07T22:55:10.539Z,38.20
2019-04-07T22:57:39.000Z,38.13
2019-04-07T23:00:12.965Z,43.00
2019-04-07T23:02:42.317Z,35.28
2019-04-07T23:05:11.435Z,49.18
2019-04-07T23:07:39.989Z,39.88
2019-04-07T23:10:09.474Z,41.77
2019-04-07T23:12:38.227Z,38.90
2019-04-07T23:15:07.748Z,43.55
2019-04-07T23:17:36.435Z,34.27
2019-04-07T23:20:08.118Z,42.00
2019-04-07T23:22:36.648Z,39.67
2019-04-07T23:25:06.352Z,37.00
2019-04-07T23:27:35.961Z,36.70
2019-04-07T23:30:07.643Z,41.00
2019-04-07T23:32:36.091Z,47.88
2019-04-07T23:35:06.272Z,48.65
2019-04-07T23:37:34.953Z,41.28
2019-04-07T23:40:08.635Z,41.48
2019-04-07T23:42:38.183Z,44.03
2019-04-07T23:45:08.206Z,42.67
2019-04-07T23:47:36.770Z,40.38
2019-04-07T23:50:09.156Z,46.13
2019-04-07T23:52:37.643Z,42.65
2019-04-07T23:55:06.482Z,50.55
2019-04-07T23:57:35.982Z,47.10
